Time,TemperatureF,DewpointF,PressureIn,WindDirection,WindDirectionDegrees,WindSpeedMPH,WindSpeedGustMPH,Humidity,HourlyPrecipIn,Conditions,Clouds,dailyrainin,SoftwareType,DateUTC
2013-03-22 00:06:00,67.6,34.2,29.88,SE,136,1.0,1.0,29,0.00,,,0.00,Wunderground v.1.13,2013-03-22 07:06:00,
2013-03-22 00:21:00,63.9,46.4,29.87,SSW,209,0.0,0.0,53,0.00,,,0.00,Wunderground v.1.13,2013-03-22 07:21:00,
2013-03-22 00:26:00,63.1,39.0,29.87,SSW,193,0.0,0.0,41,0.00,,,0.00,Wunderground v.1.13,2013-03-22 07:26:00,
2013-03-22 00:36:00,63.1,46.2,29.86,SW,221,0.0,0.0,54,0.00,,,0.00,Wunderground v.1.13,2013-03-22 07:36:00,
2013-03-22 00:51:00,61.6,48.4,29.86,SW,223,0.0,0.0,62,0.00,,,0.00,Wunderground v.1.13,2013-03-22 07:51:00,
2013-03-22 01:01:00,60.0,46.1,29.85,SW,223,0.0,0.0,60,0.00,,,0.00,Wunderground v.1.13,2013-03-22 08:01:00,
2013-03-22 01:06:00,60.1,49.1,29.85,WNW,284,1.0,1.0,67,0.00,,,0.00,Wunderground v.1.13,2013-03-22 08:06:00,
2013-03-22 01:21:00,58.4,47.5,29.85,WNW,284,0.0,0.0,67,0.00,,,0.00,Wunderground v.1.13,2013-03-22 08:21:00,
2013-03-22 01:36:00,61.3,27.0,29.84,SSE,147,4.0,4.0,27,0.00,,,0.00,Wunderground v.1.13,2013-03-22 08:36:00,
2013-03-22 01:46:00,66.3,26.3,29.83,SE,137,7.0,12.0,22,0.00,,,0.00,Wunderground v.1.13,2013-03-22 08:46:00,
2013-03-22 01:56:00,66.9,25.7,29.83,SSE,150,8.0,8.0,21,0.00,,,0.00,Wunderground v.1.13,2013-03-22 08:56:00,
2013-03-22 02:01:00,66.9,25.7,29.83,SSE,162,5.0,5.0,21,0.00,,,0.00,Wunderground v.1.13,2013-03-22 09:01:00,
2013-03-22 02:16:00,67.6,21.2,29.83,SE,139,3.0,3.0,17,0.00,,,0.00,Wunderground v.1.13,2013-03-22 09:16:00,
2013-03-22 02:26:00,67.6,21.2,29.82,SE,145,2.0,2.0,17,0.00,,,0.00,Wunderground v.1.13,2013-03-22 09:26:00,
2013-03-22 02:36:00,67.4,22.4,29.82,South,171,1.0,1.0,18,0.00,,,0.00,Wunderground v.1.13,2013-03-22 09:36:00,
2013-03-22 02:41:00,66.9,25.7,29.82,South,176,0.0,0.0,21,0.00,,,0.00,Wunderground v.1.13,2013-03-22 09:41:00,
2013-03-22 02:51:00,63.5,48.0,29.83,NW,308,1.0,3.0,57,0.00,,,0.00,Wunderground v.1.13,2013-03-22 09:51:00,
2013-03-22 03:01:00,59.7,47.9,29.82,WSW,248,5.0,10.0,65,0.00,,,0.00,Wunderground v.1.13,2013-03-22 10:01:00,
2013-03-22 03:11:00,59.3,47.5,29.82,WNW,294,2.0,2.0,65,0.00,,,0.00,Wunderground v.1.13,2013-03-22 10:11:00,
2013-03-22 03:16:00,59.5,48.1,29.83,WNW,302,1.0,1.0,66,0.00,,,0.00,Wunderground v.1.13,2013-03-22 10:16:00,
2013-03-22 03:21:00,59.5,48.1,29.83,NW,309,0.0,0.0,66,0.00,,,0.00,Wunderground v.1.13,2013-03-22 10:21:00,
2013-03-22 03:41:00,58.9,46.3,29.82,WNW,300,0.0,0.0,63,0.00,,,0.00,Wunderground v.1.13,2013-03-22 10:41:00,
2013-03-22 03:56:00,58.7,44.0,29.82,WNW,299,0.0,0.0,58,0.00,,,0.00,Wunderground v.1.13,2013-03-22 10:56:00,
2013-03-22 04:06:00,59.2,39.0,29.82,SSW,195,0.0,0.0,47,0.00,,,0.00,Wunderground v.1.13,2013-03-22 11:06:00,
2013-03-22 04:16:00,59.6,38.2,29.82,South,187,0.0,0.0,45,0.00,,,0.00,Wunderground v.1.13,2013-03-22 11:16:00,
2013-03-22 04:26:00,59.1,40.5,29.83,South,186,0.0,0.0,50,0.00,,,0.00,Wunderground v.1.13,2013-03-22 11:26:00,
2013-03-22 04:31:00,58.6,41.0,29.83,South,186,0.0,0.0,52,0.00,,,0.00,Wunderground v.1.13,2013-03-22 11:31:00,
2013-03-22 04:36:00,58.0,38.4,29.83,South,186,0.0,0.0,48,0.00,,,0.00,Wunderground v.1.13,2013-03-22 11:36:00,
2013-03-22 04:51:00,56.9,44.8,29.83,SSW,213,0.0,0.0,64,0.00,,,0.00,Wunderground v.1.13,2013-03-22 11:51:00,
2013-03-22 05:01:00,56.4,44.8,29.84,SSW,213,0.0,0.0,65,0.00,,,0.00,Wunderground v.1.13,2013-03-22 12:01:00,
2013-03-22 05:16:00,54.6,41.8,29.83,SSW,213,0.0,0.0,62,0.00,,,0.00,Wunderground v.1.13,2013-03-22 12:16:00,
2013-03-22 05:26:00,53.9,39.5,29.84,SSW,213,0.0,0.0,58,0.00,,,0.00,Wunderground v.1.13,2013-03-22 12:26:00,
2013-03-22 05:41:00,53.6,37.8,29.84,SSW,203,0.0,0.0,55,0.00,,,0.00,Wunderground v.1.13,2013-03-22 12:41:00,
2013-03-22 05:51:00,54.5,39.6,29.84,SSW,208,0.0,0.0,57,0.00,,,0.00,Wunderground v.1.13,2013-03-22 12:51:00,
2013-03-22 05:56:00,54.9,42.5,29.85,SSW,209,0.0,0.0,63,0.00,,,0.00,Wunderground v.1.13,2013-03-22 12:56:00,
2013-03-22 06:01:00,54.9,43.4,29.84,SSW,209,0.0,0.0,65,0.00,,,0.00,Wunderground v.1.13,2013-03-22 13:01:00,
2013-03-22 06:21:00,54.1,43.8,29.85,SW,214,0.0,0.0,68,0.00,,,0.00,Wunderground v.1.13,2013-03-22 13:21:00,
2013-03-22 06:31:00,53.4,43.5,29.86,SW,217,0.0,0.0,69,0.00,,,0.00,Wunderground v.1.13,2013-03-22 13:31:00,
2013-03-22 06:36:00,53.1,42.8,29.86,SW,217,0.0,0.0,68,0.00,,,0.00,Wunderground v.1.13,2013-03-22 13:36:00,
2013-03-22 06:51:00,52.3,41.7,29.86,SW,217,0.0,0.0,67,0.00,,,0.00,Wunderground v.1.13,2013-03-22 13:51:00,
2013-03-22 07:06:00,51.1,38.9,29.88,SSW,206,0.0,0.0,63,0.00,,,0.00,Wunderground v.1.13,2013-03-22 14:06:00,
2013-03-22 07:11:00,50.9,38.7,29.89,SSW,206,0.0,0.0,63,0.00,,,0.00,Wunderground v.1.13,2013-03-22 14:11:00,
2013-03-22 07:21:00,50.6,38.5,29.90,SSW,206,0.0,0.0,63,0.00,,,0.00,Wunderground v.1.13,2013-03-22 14:21:00,
2013-03-22 07:31:00,50.3,38.2,29.90,SSW,206,0.0,0.0,63,0.00,,,0.00,Wunderground v.1.13,2013-03-22 14:31:00,
2013-03-22 07:41:00,50.1,38.4,29.90,SSW,206,0.0,0.0,64,0.00,,,0.00,Wunderground v.1.13,2013-03-22 14:41:00,
2013-03-22 07:51:00,50.0,38.7,29.91,SSW,202,0.0,0.0,65,0.00,,,0.00,Wunderground v.1.13,2013-03-22 14:51:00,
2013-03-22 07:56:00,50.2,39.3,29.91,SSW,202,0.0,0.0,66,0.00,,,0.00,Wunderground v.1.13,2013-03-22 14:56:00,
2013-03-22 08:01:00,50.6,40.4,29.91,SSW,199,0.0,0.0,68,0.00,,,0.00,Wunderground v.1.13,2013-03-22 15:01:00,
2013-03-22 08:06:00,50.8,40.6,29.91,SSW,199,0.0,0.0,68,0.00,,,0.00,Wunderground v.1.13,2013-03-22 15:06:00,
2013-03-22 08:21:00,51.5,42.4,29.91,SSW,199,0.0,0.0,71,0.00,,,0.00,Wunderground v.1.13,2013-03-22 15:21:00,
2013-03-22 08:41:00,52.6,44.2,29.92,SSW,199,0.0,0.0,73,0.00,,,0.00,Wunderground v.1.13,2013-03-22 15:41:00,
2013-03-22 08:56:00,54.3,46.5,29.92,SSW,199,0.0,0.0,75,0.00,,,0.00,Wunderground v.1.13,2013-03-22 15:56:00,
2013-03-22 09:06:00,55.8,48.3,29.92,SSW,199,0.0,0.0,76,0.00,,,0.00,Wunderground v.1.13,2013-03-22 16:06:00,
2013-03-22 09:21:00,58.8,52.0,29.93,West,275,0.0,0.0,78,0.00,,,0.00,Wunderground v.1.13,2013-03-22 16:21:00,
2013-03-22 10:16:00,62.4,54.7,29.94,North,0,0.0,3.0,76,0.00,,,0.00,Wunderground v.1.13,2013-03-22 17:16:00,
2013-03-22 10:21:00,62.4,54.7,29.94,North,0,0.0,3.0,76,0.00,,,0.00,Wunderground v.1.13,2013-03-22 17:21:00,
2013-03-22 10:26:00,62.4,54.7,29.94,North,0,0.0,3.0,76,0.00,,,0.00,Wunderground v.1.13,2013-03-22 17:26:00,
2013-03-22 10:31:00,62.4,54.7,29.94,North,0,0.0,3.0,76,0.00,,,0.00,Wunderground v.1.13,2013-03-22 17:31:00,
2013-03-22 10:36:00,62.4,54.7,29.94,North,0,0.0,3.0,76,0.00,,,0.00,Wunderground v.1.13,2013-03-22 17:36:00,
2013-03-22 10:41:00,62.4,54.7,29.94,North,0,0.0,3.0,76,0.00,,,0.00,Wunderground v.1.13,2013-03-22 17:41:00,
2013-03-22 10:46:00,63.2,55.9,29.94,North,0,0.0,5.0,77,0.00,,,0.00,Wunderground v.1.13,2013-03-22 17:46:00,
2013-03-22 10:51:00,63.2,55.9,29.94,North,0,0.0,5.0,77,0.00,,,0.00,Wunderground v.1.13,2013-03-22 17:51:00,
2013-03-22 10:56:00,63.2,55.9,29.94,North,0,0.0,5.0,77,0.00,,,0.00,Wunderground v.1.13,2013-03-22 17:56:00,
2013-03-22 11:01:00,63.2,55.9,29.94,North,0,0.0,5.0,77,0.00,,,0.00,Wunderground v.1.13,2013-03-22 18:01:00,
2013-03-22 11:06:00,63.2,55.9,29.94,North,0,0.0,5.0,77,0.00,,,0.00,Wunderground v.1.13,2013-03-22 18:06:00,
2013-03-22 11:11:00,63.2,55.9,29.94,North,0,0.0,5.0,77,0.00,,,0.00,Wunderground v.1.13,2013-03-22 18:11:00,
2013-03-22 11:16:00,64.4,56.3,29.94,NW,315,0.0,5.0,75,0.00,,,0.00,Wunderground v.1.13,2013-03-22 18:16:00,
2013-03-22 11:21:00,64.4,56.3,29.94,NW,315,0.0,5.0,75,0.00,,,0.00,Wunderground v.1.13,2013-03-22 18:21:00,
2013-03-22 11:26:00,64.4,56.3,29.94,NW,315,0.0,5.0,75,0.00,,,0.00,Wunderground v.1.13,2013-03-22 18:26:00,
2013-03-22 11:31:00,64.4,56.3,29.94,NW,315,0.0,5.0,75,0.00,,,0.00,Wunderground v.1.13,2013-03-22 18:31:00,
2013-03-22 11:36:00,64.4,56.3,29.94,NW,315,0.0,5.0,75,0.00,,,0.00,Wunderground v.1.13,2013-03-22 18:36:00,
2013-03-22 11:41:00,64.4,56.3,29.94,NW,315,0.0,5.0,75,0.00,,,0.00,Wunderground v.1.13,2013-03-22 18:41:00,
2013-03-22 11:46:00,64.7,55.5,29.94,North,0,1.0,5.0,72,0.00,,,0.00,Wunderground v.1.13,2013-03-22 18:46:00,
2013-03-22 11:51:00,64.7,55.5,29.94,North,0,1.0,5.0,72,0.00,,,0.00,Wunderground v.1.13,2013-03-22 18:51:00,
2013-03-22 11:56:00,64.7,55.5,29.94,North,0,1.0,5.0,72,0.00,,,0.00,Wunderground v.1.13,2013-03-22 18:56:00,
2013-03-22 12:01:00,64.7,55.5,29.94,North,0,1.0,5.0,72,0.00,,,0.00,Wunderground v.1.13,2013-03-22 19:01:00,
2013-03-22 12:06:00,64.7,55.5,29.94,North,0,1.0,5.0,72,0.00,,,0.00,Wunderground v.1.13,2013-03-22 19:06:00,
2013-03-22 12:11:00,64.7,55.5,29.94,North,0,1.0,5.0,72,0.00,,,0.00,Wunderground v.1.13,2013-03-22 19:11:00,
2013-03-22 12:16:00,64.6,54.6,29.94,NNW,338,1.0,6.0,70,0.00,,,0.00,Wunderground v.1.13,2013-03-22 19:16:00,
2013-03-22 12:21:00,64.6,54.6,29.94,NNW,338,1.0,6.0,70,0.00,,,0.00,Wunderground v.1.13,2013-03-22 19:21:00,
2013-03-22 12:26:00,64.6,54.6,29.94,NNW,338,1.0,6.0,70,0.00,,,0.00,Wunderground v.1.13,2013-03-22 19:26:00,
2013-03-22 12:31:00,64.6,54.6,29.94,NNW,338,1.0,6.0,70,0.00,,,0.00,Wunderground v.1.13,2013-03-22 19:31:00,
2013-03-22 12:36:00,64.6,54.6,29.94,NNW,338,1.0,6.0,70,0.00,,,0.00,Wunderground v.1.13,2013-03-22 19:36:00,
2013-03-22 12:41:00,64.6,54.6,29.94,NNW,338,1.0,6.0,70,0.00,,,0.00,Wunderground v.1.13,2013-03-22 19:41:00,
2013-03-22 12:46:00,65.8,52.9,29.93,NW,315,1.0,5.0,63,0.00,,,0.00,Wunderground v.1.13,2013-03-22 19:46:00,
2013-03-22 12:51:00,65.8,52.9,29.93,NW,315,1.0,5.0,63,0.00,,,0.00,Wunderground v.1.13,2013-03-22 19:51:00,
2013-03-22 12:56:00,65.8,52.9,29.93,NW,315,1.0,5.0,63,0.00,,,0.00,Wunderground v.1.13,2013-03-22 19:56:00,
2013-03-22 13:01:00,65.8,52.9,29.93,NW,315,1.0,5.0,63,0.00,,,0.00,Wunderground v.1.13,2013-03-22 20:01:00,
2013-03-22 13:06:00,65.8,52.9,29.93,NW,315,1.0,5.0,63,0.00,,,0.00,Wunderground v.1.13,2013-03-22 20:06:00,
2013-03-22 13:11:00,65.8,52.9,29.93,NW,315,1.0,5.0,63,0.00,,,0.00,Wunderground v.1.13,2013-03-22 20:11:00,
2013-03-22 13:16:00,68.5,53.6,29.92,NE,45,1.0,4.0,59,0.00,,,0.00,Wunderground v.1.13,2013-03-22 20:16:00,
2013-03-22 13:21:00,68.5,53.6,29.92,NE,45,1.0,4.0,59,0.00,,,0.00,Wunderground v.1.13,2013-03-22 20:21:00,
2013-03-22 13:26:00,68.5,53.6,29.92,NE,45,1.0,4.0,59,0.00,,,0.00,Wunderground v.1.13,2013-03-22 20:26:00,
2013-03-22 13:31:00,68.5,53.6,29.92,NE,45,1.0,4.0,59,0.00,,,0.00,Wunderground v.1.13,2013-03-22 20:31:00,
2013-03-22 13:36:00,68.5,53.6,29.92,NE,45,1.0,4.0,59,0.00,,,0.00,Wunderground v.1.13,2013-03-22 20:36:00,
2013-03-22 13:41:00,68.5,53.6,29.92,NE,45,1.0,4.0,59,0.00,,,0.00,Wunderground v.1.13,2013-03-22 20:41:00,
2013-03-22 13:46:00,67.7,52.9,29.91,NW,315,1.0,5.0,59,0.00,,,0.00,Wunderground v.1.13,2013-03-22 20:46:00,
2013-03-22 13:51:00,67.7,52.9,29.91,NW,315,1.0,5.0,59,0.00,,,0.00,Wunderground v.1.13,2013-03-22 20:51:00,
2013-03-22 13:56:00,67.7,52.9,29.91,NW,315,1.0,5.0,59,0.00,,,0.00,Wunderground v.1.13,2013-03-22 20:56:00,
2013-03-22 14:01:00,67.7,52.9,29.91,NW,315,1.0,5.0,59,0.00,,,0.00,Wunderground v.1.13,2013-03-22 21:01:00,
2013-03-22 14:06:00,67.7,52.9,29.91,NW,315,1.0,5.0,59,0.00,,,0.00,Wunderground v.1.13,2013-03-22 21:06:00,
2013-03-22 14:11:00,67.7,52.9,29.91,NW,315,1.0,5.0,59,0.00,,,0.00,Wunderground v.1.13,2013-03-22 21:11:00,
2013-03-22 14:16:00,70.5,49.3,29.90,NW,315,1.0,6.0,47,0.00,,,0.00,Wunderground v.1.13,2013-03-22 21:16:00,
2013-03-22 14:21:00,70.5,49.3,29.90,NW,315,1.0,6.0,47,0.00,,,0.00,Wunderground v.1.13,2013-03-22 21:21:00,
2013-03-22 14:26:00,70.5,49.3,29.90,NW,315,1.0,6.0,47,0.00,,,0.00,Wunderground v.1.13,2013-03-22 21:26:00,
2013-03-22 14:31:00,70.5,49.3,29.90,NW,315,1.0,6.0,47,0.00,,,0.00,Wunderground v.1.13,2013-03-22 21:31:00,
2013-03-22 14:36:00,70.5,49.3,29.90,NW,315,1.0,6.0,47,0.00,,,0.00,Wunderground v.1.13,2013-03-22 21:36:00,
2013-03-22 14:41:00,70.5,49.3,29.90,NW,315,1.0,6.0,47,0.00,,,0.00,Wunderground v.1.13,2013-03-22 21:41:00,
2013-03-22 14:46:00,70.7,48.9,29.89,NE,45,1.0,6.0,46,0.00,,,0.00,Wunderground v.1.13,2013-03-22 21:46:00,
2013-03-22 14:51:00,70.7,48.9,29.89,NE,45,1.0,6.0,46,0.00,,,0.00,Wunderground v.1.13,2013-03-22 21:51:00,
2013-03-22 14:56:00,70.7,48.9,29.89,NE,45,1.0,6.0,46,0.00,,,0.00,Wunderground v.1.13,2013-03-22 21:56:00,
2013-03-22 15:01:00,70.7,48.9,29.89,NE,45,1.0,6.0,46,0.00,,,0.00,Wunderground v.1.13,2013-03-22 22:01:00,
2013-03-22 15:06:00,70.7,48.9,29.89,NE,45,1.0,6.0,46,0.00,,,0.00,Wunderground v.1.13,2013-03-22 22:06:00,
2013-03-22 15:11:00,70.7,48.9,29.89,NE,45,1.0,6.0,46,0.00,,,0.00,Wunderground v.1.13,2013-03-22 22:11:00,
2013-03-22 15:16:00,66.5,50.3,29.88,NW,315,2.0,7.0,56,0.00,,,0.00,Wunderground v.1.13,2013-03-22 22:16:00,
2013-03-22 15:21:00,66.5,50.3,29.88,NW,315,2.0,7.0,56,0.00,,,0.00,Wunderground v.1.13,2013-03-22 22:21:00,
2013-03-22 15:26:00,66.5,50.3,29.88,NW,315,2.0,7.0,56,0.00,,,0.00,Wunderground v.1.13,2013-03-22 22:26:00,
2013-03-22 15:31:00,66.5,50.3,29.88,NW,315,2.0,7.0,56,0.00,,,0.00,Wunderground v.1.13,2013-03-22 22:31:00,
2013-03-22 15:36:00,66.5,50.3,29.88,NW,315,2.0,7.0,56,0.00,,,0.00,Wunderground v.1.13,2013-03-22 22:36:00,
2013-03-22 15:41:00,66.5,50.3,29.88,NW,315,2.0,7.0,56,0.00,,,0.00,Wunderground v.1.13,2013-03-22 22:41:00,
2013-03-22 15:46:00,64.9,54.1,29.88,NW,315,2.0,11.0,68,0.00,,,0.00,Wunderground v.1.13,2013-03-22 22:46:00,
2013-03-22 15:51:00,64.9,54.1,29.88,NW,315,2.0,11.0,68,0.00,,,0.00,Wunderground v.1.13,2013-03-22 22:51:00,
2013-03-22 15:56:00,64.9,54.1,29.88,NW,315,2.0,11.0,68,0.00,,,0.00,Wunderground v.1.13,2013-03-22 22:56:00,
2013-03-22 16:01:00,64.9,54.1,29.88,NW,315,2.0,11.0,68,0.00,,,0.00,Wunderground v.1.13,2013-03-22 23:01:00,
2013-03-22 16:06:00,64.9,54.1,29.88,NW,315,2.0,11.0,68,0.00,,,0.00,Wunderground v.1.13,2013-03-22 23:06:00,
2013-03-22 16:11:00,64.9,54.1,29.88,NW,315,2.0,11.0,68,0.00,,,0.00,Wunderground v.1.13,2013-03-22 23:11:00,
2013-03-22 16:16:00,66.1,52.7,29.87,NNW,338,1.0,9.0,62,0.00,,,0.00,Wunderground v.1.13,2013-03-22 23:16:00,
2013-03-22 16:21:00,66.1,52.7,29.87,NNW,338,1.0,9.0,62,0.00,,,0.00,Wunderground v.1.13,2013-03-22 23:21:00,
2013-03-22 16:26:00,66.1,52.7,29.87,NNW,338,1.0,9.0,62,0.00,,,0.00,Wunderground v.1.13,2013-03-22 23:26:00,
2013-03-22 16:31:00,66.1,52.7,29.87,NNW,338,1.0,9.0,62,0.00,,,0.00,Wunderground v.1.13,2013-03-22 23:31:00,
2013-03-22 16:36:00,66.1,52.7,29.87,NNW,338,1.0,9.0,62,0.00,,,0.00,Wunderground v.1.13,2013-03-22 23:36:00,
2013-03-22 16:41:00,66.1,52.7,29.87,NNW,338,1.0,9.0,62,0.00,,,0.00,Wunderground v.1.13,2013-03-22 23:41:00,
2013-03-22 16:46:00,67.8,52.9,29.87,NNE,23,0.0,5.0,59,0.00,,,0.00,Wunderground v.1.13,2013-03-22 23:46:00,
2013-03-22 16:51:00,67.8,52.9,29.87,NNE,23,0.0,5.0,59,0.00,,,0.00,Wunderground v.1.13,2013-03-22 23:51:00,
2013-03-22 16:56:00,67.8,52.9,29.87,NNE,23,0.0,5.0,59,0.00,,,0.00,Wunderground v.1.13,2013-03-22 23:56:00,
2013-03-22 17:01:00,67.8,52.9,29.87,NNE,23,0.0,5.0,59,0.00,,,0.00,Wunderground v.1.13,2013-03-23 00:01:00,
2013-03-22 17:06:00,67.8,52.9,29.87,NNE,23,0.0,5.0,59,0.00,,,0.00,Wunderground v.1.13,2013-03-23 00:06:00,
2013-03-22 17:11:00,67.8,52.9,29.87,NNE,23,0.0,5.0,59,0.00,,,0.00,Wunderground v.1.13,2013-03-23 00:11:00,
2013-03-22 17:16:00,66.9,52.1,29.86,NNE,23,0.0,4.0,59,0.00,,,0.00,Wunderground v.1.13,2013-03-23 00:16:00,
2013-03-22 17:21:00,66.9,52.1,29.86,NNE,23,0.0,4.0,59,0.00,,,0.00,Wunderground v.1.13,2013-03-23 00:21:00,
2013-03-22 17:26:00,66.9,52.1,29.86,NNE,23,0.0,4.0,59,0.00,,,0.00,Wunderground v.1.13,2013-03-23 00:26:00,
2013-03-22 17:31:00,66.9,52.1,29.86,NNE,23,0.0,4.0,59,0.00,,,0.00,Wunderground v.1.13,2013-03-23 00:31:00,
2013-03-22 17:36:00,66.9,52.1,29.86,NNE,23,0.0,4.0,59,0.00,,,0.00,Wunderground v.1.13,2013-03-23 00:36:00,
2013-03-22 17:41:00,66.9,52.1,29.86,NNE,23,0.0,4.0,59,0.00,,,0.00,Wunderground v.1.13,2013-03-23 00:41:00,
2013-03-22 17:46:00,64.8,52.8,29.86,NNW,338,0.0,6.0,65,0.00,,,0.00,Wunderground v.1.13,2013-03-23 00:46:00,
2013-03-22 17:51:00,64.8,52.8,29.86,NNW,338,0.0,6.0,65,0.00,,,0.00,Wunderground v.1.13,2013-03-23 00:51:00,
2013-03-22 17:56:00,64.8,52.8,29.86,NNW,338,0.0,6.0,65,0.00,,,0.00,Wunderground v.1.13,2013-03-23 00:56:00,
2013-03-22 18:01:00,64.8,52.8,29.86,NNW,338,0.0,6.0,65,0.00,,,0.00,Wunderground v.1.13,2013-03-23 01:01:00,
2013-03-22 18:06:00,64.8,52.8,29.86,NNW,338,0.0,6.0,65,0.00,,,0.00,Wunderground v.1.13,2013-03-23 01:06:00,
2013-03-22 18:11:00,64.8,52.8,29.86,NNW,338,0.0,6.0,65,0.00,,,0.00,Wunderground v.1.13,2013-03-23 01:11:00,
2013-03-22 18:16:00,64.4,53.2,29.86,NNW,338,0.0,4.0,67,0.00,,,0.00,Wunderground v.1.13,2013-03-23 01:16:00,
2013-03-22 18:21:00,64.9,52.8,29.86,NNW,342,0.0,0.0,65,0.00,,,0.00,Wunderground v.1.13,2013-03-23 01:21:00,
2013-03-22 18:26:00,64.6,53.0,29.86,NNW,341,0.0,0.0,66,0.00,,,0.00,Wunderground v.1.13,2013-03-23 01:26:00,
2013-03-22 18:31:00,64.3,53.1,29.86,NNW,341,0.0,0.0,67,0.00,,,0.00,Wunderground v.1.13,2013-03-23 01:31:00,
2013-03-22 18:41:00,63.9,53.1,29.86,NNW,341,0.0,0.0,68,0.00,,,0.00,Wunderground v.1.13,2013-03-23 01:41:00,
2013-03-22 18:51:00,63.0,51.5,29.86,NNW,333,0.0,0.0,66,0.00,,,0.00,Wunderground v.1.13,2013-03-23 01:51:00,
2013-03-22 19:01:00,62.9,50.5,29.86,NNW,331,0.0,2.0,64,0.00,,,0.00,Wunderground v.1.13,2013-03-23 02:01:00,
2013-03-22 19:06:00,63.1,50.3,29.86,NW,311,1.0,1.0,63,0.00,,,0.00,Wunderground v.1.13,2013-03-23 02:06:00,
2013-03-22 19:22:00,63.2,50.4,29.87,WNW,300,1.0,4.0,63,0.00,,,0.00,Wunderground v.1.13,2013-03-23 02:22:00,
2013-03-22 19:31:00,62.8,49.6,29.87,WNW,292,2.0,2.0,62,0.00,,,0.00,Wunderground v.1.13,2013-03-23 02:31:00,
2013-03-22 19:41:00,62.3,50.4,29.88,West,281,3.0,4.0,65,0.00,,,0.00,Wunderground v.1.13,2013-03-23 02:41:00,
2013-03-22 19:47:00,62.0,48.4,29.88,WNW,284,2.0,2.0,61,0.00,,,0.00,Wunderground v.1.13,2013-03-23 02:47:00,
2013-03-22 19:56:00,62.1,45.7,29.88,WNW,284,0.0,0.0,55,0.00,,,0.00,Wunderground v.1.13,2013-03-23 02:56:00,
2013-03-22 20:01:00,62.2,47.7,29.89,WNW,284,0.0,0.0,59,0.00,,,0.00,Wunderground v.1.13,2013-03-23 03:01:00,
2013-03-22 20:26:00,63.3,38.6,29.88,WNW,284,0.0,2.0,40,0.00,,,0.00,Wunderground v.1.13,2013-03-23 03:26:00,
2013-03-22 20:31:00,63.5,48.0,29.89,WNW,285,1.0,4.0,57,0.00,,,0.00,Wunderground v.1.13,2013-03-23 03:31:00,
2013-03-22 20:41:00,62.4,48.3,29.89,WNW,286,4.0,4.0,60,0.00,,,0.00,Wunderground v.1.13,2013-03-23 03:41:00,
2013-03-22 20:51:00,61.9,44.1,29.89,WNW,286,1.0,1.0,52,0.00,,,0.00,Wunderground v.1.13,2013-03-23 03:51:00,
2013-03-22 20:56:00,61.9,45.1,29.90,WNW,286,0.0,0.0,54,0.00,,,0.00,Wunderground v.1.13,2013-03-23 03:56:00,
2013-03-22 21:01:00,62.2,44.3,29.90,WNW,287,0.0,3.0,52,0.00,,,0.00,Wunderground v.1.13,2013-03-23 04:01:00,
2013-03-22 21:11:00,63.0,40.1,29.91,WNW,286,2.0,3.0,43,0.00,,,0.00,Wunderground v.1.13,2013-03-23 04:11:00,
2013-03-22 21:21:00,63.9,25.3,29.91,WNW,286,0.0,0.0,23,0.00,,,0.00,Wunderground v.1.13,2013-03-23 04:21:00,
2013-03-22 21:41:00,64.1,38.6,29.91,West,281,1.0,1.0,39,0.00,,,0.00,Wunderground v.1.13,2013-03-23 04:41:00,
2013-03-22 21:51:00,64.6,33.3,29.91,ESE,119,1.0,1.0,31,0.00,,,0.00,Wunderground v.1.13,2013-03-23 04:51:00,
2013-03-22 21:56:00,64.7,29.9,29.91,ESE,123,0.0,0.0,27,0.00,,,0.00,Wunderground v.1.13,2013-03-23 04:56:00,
2013-03-22 22:01:00,64.7,35.7,29.92,ESE,123,0.0,0.0,34,0.00,,,0.00,Wunderground v.1.13,2013-03-23 05:01:00,
2013-03-22 22:11:00,63.9,41.0,29.92,SE,128,0.0,0.0,43,0.00,,,0.00,Wunderground v.1.13,2013-03-23 05:11:00,
2013-03-22 22:16:00,63.5,42.9,29.92,SE,128,0.0,0.0,47,0.00,,,0.00,Wunderground v.1.13,2013-03-23 05:16:00,
2013-03-22 22:26:00,62.5,42.0,29.92,SE,128,0.0,0.0,47,0.00,,,0.00,Wunderground v.1.13,2013-03-23 05:26:00,
2013-03-22 22:31:00,62.0,32.5,29.91,SE,128,0.0,0.0,33,0.00,,,0.00,Wunderground v.1.13,2013-03-23 05:31:00,
2013-03-22 22:46:00,62.8,31.7,29.92,SE,127,0.0,0.0,31,0.00,,,0.00,Wunderground v.1.13,2013-03-23 05:46:00,
2013-03-22 22:56:00,63.2,20.2,29.92,SE,128,0.0,0.0,19,0.00,,,0.00,Wunderground v.1.13,2013-03-23 05:56:00,
2013-03-22 23:16:00,65.2,16.3,29.93,SSE,157,2.0,2.0,15,0.00,,,0.00,Wunderground v.1.13,2013-03-23 06:16:00,
2013-03-22 23:21:00,65.3,14.8,29.92,SSE,160,2.0,3.0,14,0.00,,,0.00,Wunderground v.1.13,2013-03-23 06:21:00,
2013-03-22 23:31:00,65.3,14.8,29.92,South,175,2.0,2.0,14,0.00,,,0.00,Wunderground v.1.13,2013-03-23 06:31:00,
2013-03-22 23:46:00,65.5,13.3,29.93,South,189,2.0,2.0,13,0.00,,,0.00,Wunderground v.1.13,2013-03-23 06:46:00,
2013-03-22 23:51:00,65.7,13.4,29.93,South,181,2.0,2.0,13,0.00,,,0.00,Wunderground v.1.13,2013-03-23 06:51:00,
2013-03-22 23:56:00,65.6,15.1,29.93,South,171,2.0,2.0,14,0.00,,,0.00,Wunderground v.1.13,2013-03-23 06:56:00,